Time;durP1;ratioP1;P1;durP2;ratioP2;P2;SDS_P1;SDS_P2;PMS_P1;PMS_P2;Temp;Humidity;BMP_temperature;BMP_pressure;BME280_temperature;BME280_humidity;BME280_pressure;Samples;Min_cycle;Max_cycle;Signal;HPM_P1;HPM_P2
2022/11/02 00:02:00;;;;;;;20.48;8.20;;;;;;;;;;5091015;28;20472;-64
2022/11/02 00:04:26;;;;;;;18.08;7.97;;;;;;;;;;5090826;28;20116;-64
2022/11/02 00:06:52;;;;;;;18.52;8.55;;;;;;;;;;5076503;28;20520;-64
2022/11/02 00:09:18;;;;;;;22.92;8.15;;;;;;;;;;5072021;28;20036;-65
2022/11/02 00:11:44;;;;;;;21.15;8.88;;;;;;;;;;5072414;28;20436;-64
2022/11/02 00:14:10;;;;;;;20.67;7.80;;;;;;;;;;5077097;28;20058;-64
2022/11/02 00:16:39;;;;;;;19.67;8.43;;;;;;;;;;5077732;28;20107;-64
2022/11/02 00:19:05;;;;;;;17.23;7.88;;;;;;;;;;5058996;28;20024;-64
2022/11/02 00:21:31;;;;;;;21.35;9.00;;;;;;;;;;5095772;28;20391;-64
2022/11/02 00:23:58;;;;;;;21.13;8.50;;;;;;;;;;5092832;28;20448;-68
2022/11/02 00:26:25;;;;;;;19.13;7.90;;;;;;;;;;5093717;28;20127;-64
2022/11/02 00:28:51;;;;;;;28.75;9.98;;;;;;;;;;5093923;28;20078;-63
2022/11/02 00:31:16;;;;;;;19.67;8.40;;;;;;;;;;5093918;28;20491;-64
2022/11/02 00:33:42;;;;;;;19.52;8.63;;;;;;;;;;5089414;28;20046;-65
2022/11/02 00:36:09;;;;;;;30.52;8.98;;;;;;;;;;5056591;28;20472;-64
2022/11/02 00:38:35;;;;;;;19.63;7.95;;;;;;;;;;5074518;28;20029;-64
2022/11/02 00:41:01;;;;;;;17.95;8.23;;;;;;;;;;5074830;28;20024;-64
2022/11/02 00:43:26;;;;;;;20.63;8.45;;;;;;;;;;5055794;28;20025;-64
2022/11/02 00:45:52;;;;;;;17.60;8.50;;;;;;;;;;5074635;28;20416;-64
2022/11/02 00:48:18;;;;;;;18.02;8.32;;;;;;;;;;5073241;28;20025;-64
2022/11/02 00:50:44;;;;;;;18.23;7.88;;;;;;;;;;5057307;28;20028;-64
2022/11/02 00:53:10;;;;;;;19.55;8.52;;;;;;;;;;5073579;28;20017;-63
2022/11/02 00:55:36;;;;;;;22.85;9.45;;;;;;;;;;5074214;28;20396;-65
2022/11/02 00:58:03;;;;;;;17.55;8.52;;;;;;;;;;5074027;28;20241;-64
2022/11/02 01:00:29;;;;;;;20.75;8.18;;;;;;;;;;5056361;28;20028;-64
2022/11/02 01:02:55;;;;;;;22.77;8.50;;;;;;;;;;5056151;28;20566;-63
2022/11/02 01:05:21;;;;;;;19.95;8.13;;;;;;;;;;5073465;28;20024;-63
2022/11/02 01:07:47;;;;;;;19.85;7.85;;;;;;;;;;5056178;28;20062;-64
2022/11/02 01:10:12;;;;;;;21.45;7.72;;;;;;;;;;5073982;28;20542;-64
2022/11/02 01:12:39;;;;;;;23.15;8.10;;;;;;;;;;5073754;28;20036;-64
2022/11/02 01:15:09;;;;;;;22.70;8.25;;;;;;;;;;5072999;28;20488;-64
2022/11/02 01:17:35;;;;;;;16.52;7.32;;;;;;;;;;5073856;28;20021;-64
2022/11/02 01:20:01;;;;;;;20.80;7.97;;;;;;;;;;5073610;28;20047;-64
2022/11/02 01:22:27;;;;;;;23.67;8.10;;;;;;;;;;5101246;28;20506;-64
2022/11/02 01:24:54;;;;;;;23.60;8.75;;;;;;;;;;5095138;28;20020;-63
2022/11/02 01:27:20;;;;;;;18.83;7.82;;;;;;;;;;5114286;28;20051;-62
2022/11/02 01:29:46;;;;;;;24.67;9.07;;;;;;;;;;5114051;28;20452;-64
2022/11/02 01:32:12;;;;;;;24.65;8.50;;;;;;;;;;5113958;28;20061;-64
2022/11/02 01:34:38;;;;;;;18.27;7.53;;;;;;;;;;5113096;28;20027;-64
2022/11/02 01:37:04;;;;;;;20.02;8.10;;;;;;;;;;5114184;28;20035;-64
2022/11/02 01:39:30;;;;;;;17.27;8.38;;;;;;;;;;5113765;28;20035;-64
2022/11/02 01:41:56;;;;;;;19.67;7.85;;;;;;;;;;5113942;28;20094;-64
2022/11/02 01:44:30;;;;;;;20.48;7.90;;;;;;;;;;5094728;28;20156;-63
2022/11/02 01:47:01;;;;;;;21.40;7.82;;;;;;;;;;5117129;28;20039;-64
2022/11/02 01:49:27;;;;;;;16.80;7.60;;;;;;;;;;5113266;28;20376;-64
2022/11/02 01:52:08;;;;;;;18.90;7.72;;;;;;;;;;5093449;28;20042;-64
2022/11/02 01:54:37;;;;;;;19.98;8.20;;;;;;;;;;5091499;28;20488;-64
2022/11/02 01:57:04;;;;;;;21.20;7.60;;;;;;;;;;5092033;28;20024;-64
2022/11/02 01:59:32;;;;;;;17.70;7.63;;;;;;;;;;5091410;28;20035;-64
2022/11/02 02:01:58;;;;;;;21.55;7.85;;;;;;;;;;5091939;28;20024;-63
2022/11/02 02:04:24;;;;;;;19.55;8.20;;;;;;;;;;5091061;28;20028;-64
2022/11/02 02:06:51;;;;;;;21.52;8.10;;;;;;;;;;5091896;28;20016;-63
2022/11/02 02:09:17;;;;;;;21.95;9.20;;;;;;;;;;5093043;28;20429;-64
2022/11/02 02:11:43;;;;;;;16.48;7.90;;;;;;;;;;5093037;28;20024;-64
2022/11/02 02:14:18;;;;;;;17.88;7.50;;;;;;;;;;5092180;28;20047;-64
2022/11/02 02:16:47;;;;;;;21.40;7.88;;;;;;;;;;5092885;28;20480;-64
2022/11/02 02:19:22;;;;;;;19.17;8.65;;;;;;;;;;5092725;28;20028;-64
2022/11/02 02:21:48;;;;;;;19.13;7.70;;;;;;;;;;5091287;28;20059;-64
2022/11/02 02:24:20;;;;;;;17.48;7.30;;;;;;;;;;5092175;28;20369;-64
2022/11/02 02:26:46;;;;;;;19.95;7.63;;;;;;;;;;5092790;28;20391;-64
2022/11/02 02:29:18;;;;;;;25.55;7.80;;;;;;;;;;5091383;28;20024;-63
2022/11/02 02:31:52;;;;;;;16.92;7.68;;;;;;;;;;5091475;28;20038;-64
2022/11/02 02:34:24;;;;;;;16.55;7.22;;;;;;;;;;5090364;28;20376;-63
2022/11/02 02:36:51;;;;;;;20.20;7.93;;;;;;;;;;5092607;28;20040;-64
2022/11/02 02:39:28;;;;;;;24.23;8.48;;;;;;;;;;5092640;28;20157;-65
2022/11/02 02:41:54;;;;;;;19.30;7.80;;;;;;;;;;5092304;28;20016;-64
2022/11/02 02:44:21;;;;;;;21.50;7.75;;;;;;;;;;5091821;28;20117;-64
2022/11/02 02:46:56;;;;;;;18.60;7.30;;;;;;;;;;5092337;28;20024;-64
2022/11/02 02:49:32;;;;;;;20.83;8.07;;;;;;;;;;5092690;28;20103;-64
2022/11/02 02:51:59;;;;;;;17.88;7.47;;;;;;;;;;5087667;28;20027;-64
2022/11/02 02:54:29;;;;;;;22.00;8.13;;;;;;;;;;5106283;28;20039;-64
2022/11/02 02:56:57;;;;;;;23.13;9.07;;;;;;;;;;5105541;28;20016;-64
2022/11/02 02:59:25;;;;;;;18.25;7.68;;;;;;;;;;5100514;28;20031;-64
2022/11/02 03:01:52;;;;;;;17.70;7.28;;;;;;;;;;5094904;28;20032;-64
2022/11/02 03:04:18;;;;;;;19.95;7.57;;;;;;;;;;5093646;28;20420;-64
2022/11/02 03:06:47;;;;;;;18.67;7.38;;;;;;;;;;5091705;28;20074;-64
2022/11/02 03:09:13;;;;;;;26.15;7.97;;;;;;;;;;5092244;28;20119;-64
2022/11/02 03:12:00;;;;;;;17.60;7.63;;;;;;;;;;5084713;28;20667;-64
2022/11/02 03:14:46;;;;;;;19.67;8.70;;;;;;;;;;5053233;28;20032;-64
2022/11/02 03:17:20;;;;;;;19.42;8.10;;;;;;;;;;5072087;28;20028;-64
2022/11/02 03:19:46;;;;;;;24.15;8.25;;;;;;;;;;5071914;28;20021;-64
2022/11/02 03:22:19;;;;;;;17.08;8.02;;;;;;;;;;5071795;28;20430;-64
2022/11/02 03:24:45;;;;;;;17.40;8.02;;;;;;;;;;5070967;28;20056;-64
2022/11/02 03:27:14;;;;;;;21.23;8.13;;;;;;;;;;5071908;28;20489;-64
2022/11/02 03:29:40;;;;;;;18.77;8.02;;;;;;;;;;5071752;28;20025;-64
2022/11/02 03:32:08;;;;;;;19.88;7.90;;;;;;;;;;5053874;28;20031;-64
2022/11/02 03:34:38;;;;;;;18.25;8.70;;;;;;;;;;5056187;28;20404;-64
2022/11/02 03:37:04;;;;;;;19.05;7.78;;;;;;;;;;5075634;28;20064;-62
2022/11/02 03:39:36;;;;;;;20.10;7.72;;;;;;;;;;5071772;28;20078;-64
2022/11/02 03:42:03;;;;;;;21.20;7.85;;;;;;;;;;5054780;28;20023;-62
2022/11/02 03:44:30;;;;;;;22.10;10.40;;;;;;;;;;5070879;28;20021;-67
2022/11/02 03:46:59;;;;;;;23.58;9.27;;;;;;;;;;5071405;28;20495;-64
2022/11/02 03:49:25;;;;;;;;;;;;;;;;;;5072048;28;20024;-64
2022/11/02 03:51:51;;;;;;;18.95;7.82;;;;;;;;;;5071528;28;19911;-64
2022/11/02 03:54:21;;;;;;;23.60;7.70;;;;;;;;;;5072879;28;20031;-63
2022/11/02 03:56:52;;;;;;;22.45;8.68;;;;;;;;;;5085314;28;20028;-64
2022/11/02 03:59:18;;;;;;;17.05;7.93;;;;;;;;;;5108623;28;20032;-62
2022/11/02 04:01:46;;;;;;;20.27;7.90;;;;;;;;;;5116147;28;20490;-63
2022/11/02 04:04:12;;;;;;;20.20;9.38;;;;;;;;;;5115169;28;20012;-63
2022/11/02 04:06:39;;;;;;;20.40;8.02;;;;;;;;;;5097619;28;20046;-64
2022/11/02 04:09:05;;;;;;;18.05;7.60;;;;;;;;;;5116153;28;20028;-64
2022/11/02 04:19:46;;;;;;;16.38;8.10;;;;;;;;;;5074988;28;20055;-64
2022/11/02 04:25:15;;;;;;;19.77;8.85;;;;;;;;;;5073990;28;20036;-64
2022/11/02 04:27:41;;;;;;;18.33;8.02;;;;;;;;;;5056856;28;20025;-63
2022/11/02 04:30:08;;;;;;;22.15;8.07;;;;;;;;;;5074682;28;20416;-64
2022/11/02 04:35:25;;;;;;;19.38;7.70;;;;;;;;;;5091313;28;20172;-64
2022/11/02 04:40:36;;;;;;;17.90;8.20;;;;;;;;;;5094671;28;20161;-64
2022/11/02 04:43:02;;;;;;;19.98;8.05;;;;;;;;;;5093136;28;20475;-59
2022/11/02 04:45:28;;;;;;;16.90;8.07;;;;;;;;;;5094548;28;20024;-64
2022/11/02 04:47:59;;;;;;;18.85;8.23;;;;;;;;;;5093470;28;20069;-64
2022/11/02 04:50:25;;;;;;;17.85;8.38;;;;;;;;;;5093544;28;20059;-63
2022/11/02 04:52:55;;;;;;;19.08;8.25;;;;;;;;;;5093277;28;20518;-64
2022/11/02 04:55:21;;;;;;;19.02;8.25;;;;;;;;;;5092948;28;20028;-64
2022/11/02 04:57:47;;;;;;;18.15;8.18;;;;;;;;;;5094363;28;20078;-64
2022/11/02 05:00:14;;;;;;;17.63;7.65;;;;;;;;;;5094354;28;20107;-64
2022/11/02 05:02:40;;;;;;;20.38;8.75;;;;;;;;;;5094592;28;20048;-63
2022/11/02 05:05:06;;;;;;;18.05;8.10;;;;;;;;;;5091537;28;20024;-63
2022/11/02 05:07:32;;;;;;;21.60;8.65;;;;;;;;;;5094116;28;20016;-63
2022/11/02 05:09:58;;;;;;;18.30;8.32;;;;;;;;;;5076038;28;20028;-64
2022/11/02 05:12:24;;;;;;;16.05;8.40;;;;;;;;;;5075890;28;20480;-64
2022/11/02 05:14:50;;;;;;;17.90;8.23;;;;;;;;;;5075251;28;20073;-64
2022/11/02 05:17:16;;;;;;;16.48;8.23;;;;;;;;;;5094148;28;20480;-64
2022/11/02 05:19:42;;;;;;;21.13;9.70;;;;;;;;;;5075837;28;20028;-64
2022/11/02 05:22:08;;;;;;;23.35;9.18;;;;;;;;;;5075903;28;20024;-63
2022/11/02 05:24:34;;;;;;;19.02;8.80;;;;;;;;;;5093180;28;20035;-64
2022/11/02 05:27:00;;;;;;;18.85;9.10;;;;;;;;;;5094157;28;20024;-64
2022/11/02 05:29:26;;;;;;;16.02;8.27;;;;;;;;;;5093778;28;20042;-64
2022/11/02 05:31:53;;;;;;;18.90;8.63;;;;;;;;;;5093460;28;20477;-64
2022/11/02 05:34:18;;;;;;;19.98;8.82;;;;;;;;;;5089971;28;20027;-64
2022/11/02 05:36:47;;;;;;;19.50;9.65;;;;;;;;;;5093623;22;20045;-64
2022/11/02 05:39:13;;;;;;;23.45;9.45;;;;;;;;;;5059792;28;20021;-63
2022/11/02 05:41:39;;;;;;;17.80;9.93;;;;;;;;;;5055640;28;20036;-63
2022/11/02 05:44:05;;;;;;;19.85;8.90;;;;;;;;;;5061630;28;20529;-63
2022/11/02 05:46:31;;;;;;;19.88;9.20;;;;;;;;;;5035358;28;20462;-64
2022/11/02 05:48:57;;;;;;;18.02;10.13;;;;;;;;;;5053431;28;20100;-62
2022/11/02 05:51:23;;;;;;;25.60;9.70;;;;;;;;;;5053208;28;20457;-63
2022/11/02 05:53:49;;;;;;;20.13;9.00;;;;;;;;;;5034843;28;20028;-61
2022/11/02 05:56:15;;;;;;;19.38;8.80;;;;;;;;;;5053224;28;20029;-64
2022/11/02 05:58:41;;;;;;;19.88;8.85;;;;;;;;;;5053042;28;20028;-64
2022/11/02 06:01:07;;;;;;;18.25;8.68;;;;;;;;;;5052904;28;20025;-63
2022/11/02 06:03:34;;;;;;;18.98;9.00;;;;;;;;;;5052228;28;20043;-64
2022/11/02 06:06:02;;;;;;;16.38;8.52;;;;;;;;;;5008792;28;20449;-65
2022/11/02 06:08:31;;;;;;;17.30;9.30;;;;;;;;;;5017084;28;20022;-64
2022/11/02 06:10:57;;;;;;;16.83;8.40;;;;;;;;;;5052860;28;20033;-63
2022/11/02 06:13:23;;;;;;;21.58;9.68;;;;;;;;;;5051728;28;20496;-64
2022/11/02 06:15:49;;;;;;;21.60;8.73;;;;;;;;;;5052267;28;20477;-64
2022/11/02 06:18:15;;;;;;;17.75;9.05;;;;;;;;;;5034555;28;20055;-63
2022/11/02 06:20:41;;;;;;;20.77;9.43;;;;;;;;;;5034819;28;20025;-65
2022/11/02 06:23:07;;;;;;;20.45;9.32;;;;;;;;;;5030453;28;20018;-64
2022/11/02 06:25:33;;;;;;;17.75;8.95;;;;;;;;;;5014630;28;20021;-64
2022/11/02 06:27:59;;;;;;;16.00;8.52;;;;;;;;;;5014708;28;20017;-64
2022/11/02 06:30:26;;;;;;;18.85;8.80;;;;;;;;;;5032960;28;20183;-64
2022/11/02 06:32:53;;;;;;;20.33;8.48;;;;;;;;;;5032647;28;20563;-64
2022/11/02 06:35:20;;;;;;;17.77;8.73;;;;;;;;;;4998278;28;20401;-64
2022/11/02 06:37:46;;;;;;;18.35;9.07;;;;;;;;;;5031843;28;20481;-64
2022/11/02 06:40:12;;;;;;;18.17;8.85;;;;;;;;;;5032236;28;20040;-64
2022/11/02 06:42:39;;;;;;;18.17;8.98;;;;;;;;;;5032338;28;20044;-62
2022/11/02 06:45:05;;;;;;;18.13;8.50;;;;;;;;;;5031135;28;20026;-63
2022/11/02 06:47:35;;;;;;;17.52;8.55;;;;;;;;;;5030525;28;20496;-62
2022/11/02 06:50:01;;;;;;;21.55;9.65;;;;;;;;;;5032193;28;20048;-64
2022/11/02 06:52:27;;;;;;;17.65;8.52;;;;;;;;;;5032103;28;20508;-65
2022/11/02 06:54:54;;;;;;;20.25;8.73;;;;;;;;;;5017337;28;20037;-62
2022/11/02 06:57:20;;;;;;;18.80;8.88;;;;;;;;;;4994781;28;20034;-62
2022/11/02 06:59:46;;;;;;;18.98;9.63;;;;;;;;;;5012284;28;20022;-62
2022/11/02 07:02:12;;;;;;;20.95;8.68;;;;;;;;;;5011850;28;20027;-62
2022/11/02 07:04:38;;;;;;;22.17;9.15;;;;;;;;;;5011178;28;20057;-63
2022/11/02 07:07:04;;;;;;;21.10;9.05;;;;;;;;;;4994303;28;20030;-64
2022/11/02 07:09:31;;;;;;;21.00;9.07;;;;;;;;;;4995522;28;20084;-63
2022/11/02 07:11:57;;;;;;;15.60;8.30;;;;;;;;;;5052213;28;20102;-61
2022/11/02 07:14:24;;;;;;;21.70;9.15;;;;;;;;;;5051270;28;20035;-62
2022/11/02 07:16:50;;;;;;;20.52;8.25;;;;;;;;;;5051702;28;20132;-60
2022/11/02 07:19:16;;;;;;;17.55;8.00;;;;;;;;;;5033920;28;20188;-61
2022/11/02 07:21:42;;;;;;;21.40;8.18;;;;;;;;;;5048532;28;20388;-62
2022/11/02 07:24:08;;;;;;;20.00;8.68;;;;;;;;;;5030416;28;20030;-61
2022/11/02 07:26:34;;;;;;;20.35;9.20;;;;;;;;;;5031353;28;20025;-63
2022/11/02 07:29:00;;;;;;;24.45;9.15;;;;;;;;;;5017272;28;20096;-62
2022/11/02 07:31:26;;;;;;;22.08;9.20;;;;;;;;;;5035164;28;20493;-62
2022/11/02 07:33:52;;;;;;;16.67;8.40;;;;;;;;;;5035042;28;20026;-62
2022/11/02 07:36:18;;;;;;;16.75;8.35;;;;;;;;;;5035045;28;20083;-62
2022/11/02 07:38:44;;;;;;;22.73;10.10;;;;;;;;;;5035422;28;20393;-63
2022/11/02 07:41:10;;;;;;;20.05;9.57;;;;;;;;;;5017291;28;20022;-58
2022/11/02 07:43:36;;;;;;;18.05;9.10;;;;;;;;;;5016582;28;20026;-66
2022/11/02 07:46:03;;;;;;;21.27;9.23;;;;;;;;;;5035150;28;20116;-64
2022/11/02 07:48:29;;;;;;;18.15;8.45;;;;;;;;;;5017801;28;20036;-65
2022/11/02 07:50:57;;;;;;;17.80;8.10;;;;;;;;;;5035560;28;20021;-66
2022/11/02 07:53:23;;;;;;;20.48;9.95;;;;;;;;;;5005174;28;20192;-65
2022/11/02 07:55:49;;;;;;;18.48;8.63;;;;;;;;;;4998369;28;20092;-65
2022/11/02 07:58:15;;;;;;;19.52;9.75;;;;;;;;;;5019651;28;20026;-66
2022/11/02 08:00:42;;;;;;;17.55;9.07;;;;;;;;;;5018084;28;20029;-65
2022/11/02 08:03:09;;;;;;;18.42;8.98;;;;;;;;;;5016760;28;20050;-67
2022/11/02 08:05:36;;;;;;;38.55;11.25;;;;;;;;;;4999596;28;20034;-68
2022/11/02 08:08:06;;;;;;;19.27;8.85;;;;;;;;;;5015451;28;20022;-57
2022/11/02 08:10:33;;;;;;;23.55;8.52;;;;;;;;;;4996114;28;20796;-58
2022/11/02 08:12:59;;;;;;;18.92;9.02;;;;;;;;;;5016880;28;20482;-61
2022/11/02 08:15:26;;;;;;;17.35;8.57;;;;;;;;;;5015336;28;20038;-62
2022/11/02 08:18:04;;;;;;;22.13;10.38;;;;;;;;;;5014947;28;20029;-60
2022/11/02 08:20:31;;;;;;;15.10;8.45;;;;;;;;;;5015036;28;20030;-57
2022/11/02 08:22:57;;;;;;;18.50;8.90;;;;;;;;;;5027621;28;20017;-55
2022/11/02 08:25:23;;;;;;;17.48;8.90;;;;;;;;;;5033808;28;20075;-56
2022/11/02 08:27:49;;;;;;;21.20;9.07;;;;;;;;;;5034689;28;20044;-61
2022/11/02 08:30:15;;;;;;;19.13;8.60;;;;;;;;;;5016901;28;20029;-56
2022/11/02 08:32:41;;;;;;;22.13;10.20;;;;;;;;;;5034984;28;20489;-60
2022/11/02 08:35:07;;;;;;;19.88;8.70;;;;;;;;;;5015101;28;20060;-61
2022/11/02 08:37:33;;;;;;;22.33;8.77;;;;;;;;;;5016697;28;20037;-60
2022/11/02 08:39:59;;;;;;;16.58;8.60;;;;;;;;;;5015867;28;20032;-57
2022/11/02 08:42:25;;;;;;;22.48;10.50;;;;;;;;;;5034561;28;20026;-63
2022/11/02 08:44:51;;;;;;;18.60;8.55;;;;;;;;;;5021424;28;20051;-59
2022/11/02 08:47:17;;;;;;;19.50;9.27;;;;;;;;;;5054558;28;20025;-60
2022/11/02 08:49:45;;;;;;;21.92;9.20;;;;;;;;;;5050993;28;20193;-59
2022/11/02 08:52:11;;;;;;;22.35;9.95;;;;;;;;;;5054317;28;20100;-61
2022/11/02 08:54:37;;;;;;;18.50;9.63;;;;;;;;;;5053599;28;20060;-59
2022/11/02 08:57:03;;;;;;;18.00;9.60;;;;;;;;;;5054127;28;20496;-66
2022/11/02 08:59:29;;;;;;;21.63;9.20;;;;;;;;;;5036638;28;20362;-67
2022/11/02 09:01:55;;;;;;;17.42;9.27;;;;;;;;;;5054347;28;20024;-66
2022/11/02 09:04:21;;;;;;;19.05;8.80;;;;;;;;;;5017468;28;20033;-65
2022/11/02 09:06:47;;;;;;;18.60;9.00;;;;;;;;;;5030481;28;20018;-66
2022/11/02 09:09:13;;;;;;;16.00;8.90;;;;;;;;;;5021608;28;20033;-67
2022/11/02 09:11:39;;;;;;;20.13;9.27;;;;;;;;;;5014804;28;20022;-64
2022/11/02 09:14:06;;;;;;;18.27;9.13;;;;;;;;;;4996480;28;20029;-66
2022/11/02 09:16:32;;;;;;;19.33;9.63;;;;;;;;;;4997775;28;20022;-66
2022/11/02 09:18:58;;;;;;;15.60;8.75;;;;;;;;;;5008821;28;20029;-67
2022/11/02 09:21:25;;;;;;;20.20;9.45;;;;;;;;;;5015428;28;20025;-67
2022/11/02 09:23:51;;;;;;;18.73;8.95;;;;;;;;;;5017496;28;20034;-66
2022/11/02 09:26:17;;;;;;;20.73;10.52;;;;;;;;;;5023876;28;20129;-65
2022/11/02 09:28:43;;;;;;;16.77;8.85;;;;;;;;;;5026774;28;20025;-63
2022/11/02 09:31:09;;;;;;;20.88;9.82;;;;;;;;;;5032528;28;20462;-66
2022/11/02 09:33:35;;;;;;;19.40;10.05;;;;;;;;;;5032056;28;20022;-66
2022/11/02 09:36:04;;;;;;;17.33;9.85;;;;;;;;;;5010284;28;20663;-66
2022/11/02 09:38:30;;;;;;;17.83;8.60;;;;;;;;;;5027837;28;20626;-65
2022/11/02 09:41:00;;;;;;;17.33;9.88;;;;;;;;;;5034477;28;20113;-65
2022/11/02 09:43:33;;;;;;;18.00;9.57;;;;;;;;;;5023647;28;20052;-63
2022/11/02 09:45:59;;;;;;;18.88;9.23;;;;;;;;;;5011960;28;20040;-64
2022/11/02 09:48:31;;;;;;;18.10;9.35;;;;;;;;;;5033055;28;20017;-66
2022/11/02 09:51:00;;;;;;;17.25;9.52;;;;;;;;;;5032360;28;20373;-66
2022/11/02 09:53:29;;;;;;;20.45;10.05;;;;;;;;;;5011431;28;20043;-65
2022/11/02 09:55:58;;;;;;;18.60;9.35;;;;;;;;;;5023613;28;20474;-65
2022/11/02 09:58:28;;;;;;;19.55;9.82;;;;;;;;;;5033242;28;20879;-65
2022/11/02 10:00:56;;;;;;;18.05;8.93;;;;;;;;;;5014968;28;20018;-65
2022/11/02 10:03:28;;;;;;;17.73;10.02;;;;;;;;;;5013082;28;20029;-64
2022/11/02 10:05:58;;;;;;;19.55;8.95;;;;;;;;;;5013197;28;20114;-66
2022/11/02 10:08:34;;;;;;;19.05;9.00;;;;;;;;;;4995432;28;20121;-66
2022/11/02 10:11:03;;;;;;;17.40;9.05;;;;;;;;;;5001174;28;20029;-67
2022/11/02 10:13:35;;;;;;;15.30;9.00;;;;;;;;;;5032638;28;20022;-64
2022/11/02 10:16:05;;;;;;;19.48;9.38;;;;;;;;;;5014131;28;20022;-65
2022/11/02 10:18:33;;;;;;;22.95;9.82;;;;;;;;;;5013001;28;20045;-66
2022/11/02 10:21:00;;;;;;;21.58;9.50;;;;;;;;;;4998305;28;20027;-65
2022/11/02 10:23:45;;;;;;;17.95;8.60;;;;;;;;;;5032002;28;20108;-67
2022/11/02 10:26:18;;;;;;;18.85;9.20;;;;;;;;;;5032684;28;20029;-65
2022/11/02 10:28:47;;;;;;;21.08;9.00;;;;;;;;;;5015390;28;20034;-65
2022/11/02 10:31:33;;;;;;;17.90;10.32;;;;;;;;;;5013359;28;20030;-65
2022/11/02 10:34:05;;;;;;;16.75;8.88;;;;;;;;;;5009339;28;20402;-66
2022/11/02 10:36:47;;;;;;;19.02;9.50;;;;;;;;;;4999037;28;20030;-66
2022/11/02 10:39:13;;;;;;;17.35;9.38;;;;;;;;;;5013057;28;20032;-66
2022/11/02 10:41:45;;;;;;;18.95;9.25;;;;;;;;;;5034610;28;20082;-63
2022/11/02 10:44:20;;;;;;;18.55;9.20;;;;;;;;;;5033797;28;20021;-67
2022/11/02 10:46:46;;;;;;;18.23;9.68;;;;;;;;;;5034923;28;20507;-65
2022/11/02 10:49:36;;;;;;;25.63;10.60;;;;;;;;;;5034852;28;20025;-63
2022/11/02 10:52:02;;;;;;;18.23;10.02;;;;;;;;;;5034159;28;20060;-66
2022/11/02 10:54:28;;;;;;;18.65;9.95;;;;;;;;;;5020855;28;20022;-66
2022/11/02 10:56:55;;;;;;;18.55;9.70;;;;;;;;;;5018498;28;20564;-68
2022/11/02 10:59:22;;;;;;;18.47;10.07;;;;;;;;;;5020945;28;20034;-65
2022/11/02 11:01:51;;;;;;;17.92;9.40;;;;;;;;;;5032365;28;20394;-65
2022/11/02 11:04:35;;;;;;;18.05;9.80;;;;;;;;;;5034166;28;20119;-66
2022/11/02 11:07:06;;;;;;;17.75;9.88;;;;;;;;;;5041732;28;20028;-63
2022/11/02 11:09:38;;;;;;;17.60;10.55;;;;;;;;;;5002596;28;20025;-67
2022/11/02 11:12:06;;;;;;;16.88;9.85;;;;;;;;;;5012639;28;20030;-64
2022/11/02 11:14:37;;;;;;;16.15;9.43;;;;;;;;;;5010135;28;20026;-64
2022/11/02 11:17:13;;;;;;;16.98;9.45;;;;;;;;;;4996293;28;20033;-67
2022/11/02 11:19:40;;;;;;;17.02;11.35;;;;;;;;;;4998791;28;20064;-68
2022/11/02 11:22:25;;;;;;;18.45;11.07;;;;;;;;;;4995360;28;20022;-67
2022/11/02 11:24:51;;;;;;;17.35;9.82;;;;;;;;;;4994659;28;20407;-67
2022/11/02 11:27:18;;;;;;;17.52;9.90;;;;;;;;;;4995681;28;20039;-63
2022/11/02 11:29:49;;;;;;;18.08;10.32;;;;;;;;;;5012859;28;20089;-66
2022/11/02 11:32:15;;;;;;;19.98;10.60;;;;;;;;;;5013512;28;20113;-65
2022/11/02 11:34:42;;;;;;;16.67;9.73;;;;;;;;;;4994341;28;20065;-65
2022/11/02 11:37:10;;;;;;;18.60;10.25;;;;;;;;;;5094010;22;20040;-66
2022/11/02 11:39:37;;;;;;;17.80;10.80;;;;;;;;;;5088837;28;20028;-67
2022/11/02 11:42:04;;;;;;;16.90;10.13;;;;;;;;;;5090021;28;20024;-65
2022/11/02 11:44:30;;;;;;;18.75;9.85;;;;;;;;;;5087811;28;20020;-67
2022/11/02 11:46:58;;;;;;;23.48;11.57;;;;;;;;;;5089669;28;20050;-68
2022/11/02 11:49:27;;;;;;;20.10;9.70;;;;;;;;;;5088598;28;20035;-67
2022/11/02 11:51:54;;;;;;;17.00;10.20;;;;;;;;;;5088394;28;20028;-66
2022/11/02 11:54:23;;;;;;;17.60;9.90;;;;;;;;;;5087792;28;20025;-66
2022/11/02 11:56:50;;;;;;;19.20;10.30;;;;;;;;;;5089200;28;20096;-66
2022/11/02 11:59:21;;;;;;;15.43;9.27;;;;;;;;;;5089580;28;20035;-68
2022/11/02 12:01:47;;;;;;;20.38;10.63;;;;;;;;;;5088025;28;20062;-66
2022/11/02 12:04:13;;;;;;;17.58;10.38;;;;;;;;;;5087368;28;20152;-66
2022/11/02 12:06:50;;;;;;;17.95;9.88;;;;;;;;;;5087847;28;20028;-67
2022/11/02 12:09:30;;;;;;;17.33;9.80;;;;;;;;;;5089047;28;20484;-67
2022/11/02 12:11:59;;;;;;;19.70;10.50;;;;;;;;;;5088224;28;20047;-66
2022/11/02 12:14:44;;;;;;;20.13;10.75;;;;;;;;;;5088083;28;20506;-64
2022/11/02 12:17:16;;;;;;;24.15;11.65;;;;;;;;;;5092850;28;20024;-64
2022/11/02 12:19:45;;;;;;;17.38;10.95;;;;;;;;;;5091220;28;20020;-64
2022/11/02 12:22:11;;;;;;;16.88;10.68;;;;;;;;;;5091304;28;20434;-66
2022/11/02 12:24:50;;;;;;;17.67;11.20;;;;;;;;;;5090598;28;20024;-66
2022/11/02 12:27:16;;;;;;;21.13;10.70;;;;;;;;;;5091025;28;20531;-63
2022/11/02 12:29:52;;;;;;;17.88;9.80;;;;;;;;;;5092886;28;20101;-66
2022/11/02 12:32:24;;;;;;;21.75;10.73;;;;;;;;;;5091578;28;20415;-66
2022/11/02 12:35:09;;;;;;;17.23;10.70;;;;;;;;;;5091600;28;20024;-65
2022/11/02 12:37:44;;;;;;;18.95;10.95;;;;;;;;;;5093047;28;20047;-66
2022/11/02 12:40:19;;;;;;;17.98;10.40;;;;;;;;;;5092926;28;20020;-66
2022/11/02 12:42:57;;;;;;;17.75;10.52;;;;;;;;;;5093146;28;20020;-67
2022/11/02 12:45:46;;;;;;;17.95;10.20;;;;;;;;;;5098242;28;20052;-66
2022/11/02 12:48:17;;;;;;;21.05;10.93;;;;;;;;;;5099910;28;20059;-66
2022/11/02 12:50:43;;;;;;;19.58;10.20;;;;;;;;;;5098494;28;20091;-67
2022/11/02 12:53:21;;;;;;;26.95;11.55;;;;;;;;;;5097948;28;20031;-66
2022/11/02 12:55:50;;;;;;;21.23;11.25;;;;;;;;;;5096371;28;20047;-66
2022/11/02 12:58:28;;;;;;;19.75;9.98;;;;;;;;;;5095920;28;20399;-66
2022/11/02 13:00:58;;;;;;;18.13;10.48;;;;;;;;;;5096138;28;20377;-69
2022/11/02 13:03:46;;;;;;;22.63;11.48;;;;;;;;;;5095043;28;20035;-65
2022/11/02 13:06:15;;;;;;;16.52;10.68;;;;;;;;;;5093325;28;20024;-65
2022/11/02 13:08:54;;;;;;;25.75;11.98;;;;;;;;;;5090943;28;20428;-65
2022/11/02 13:11:20;;;;;;;;;;;;;;;;;;5091618;28;20031;-64
2022/11/02 13:13:48;;;;;;;20.42;11.00;;;;;;;;;;5090372;28;20003;-65
2022/11/02 13:16:15;;;;;;;20.02;11.60;;;;;;;;;;5092024;28;20051;-67
2022/11/02 13:18:41;;;;;;;22.58;11.45;;;;;;;;;;5091739;28;20028;-65
2022/11/02 13:21:07;;;;;;;20.10;11.18;;;;;;;;;;5074713;28;20024;-65
2022/11/02 13:23:33;;;;;;;18.02;10.75;;;;;;;;;;5090974;28;20066;-63
2022/11/02 13:26:29;;;;;;;18.27;10.63;;;;;;;;;;5073051;28;20024;-65
2022/11/02 13:29:13;;;;;;;18.83;10.63;;;;;;;;;;5060861;28;20119;-63
2022/11/02 13:31:50;;;;;;;20.80;10.85;;;;;;;;;;5073286;28;20131;-62
2022/11/02 13:34:18;;;;;;;20.95;10.98;;;;;;;;;;5090850;28;20020;-69
2022/11/02 13:36:45;;;;;;;;;;;;;;;;;;5092093;28;20043;-65
2022/11/02 13:39:22;;;;;;;19.35;11.77;;;;;;;;;;5089905;28;20329;-64
2022/11/02 13:41:54;;;;;;;18.27;10.80;;;;;;;;;;5086772;28;20080;-62
2022/11/02 13:44:20;;;;;;;19.65;10.90;;;;;;;;;;5087912;28;20020;-65
2022/11/02 13:47:06;;;;;;;15.27;10.10;;;;;;;;;;5091504;28;20337;-66
2022/11/02 13:49:42;;;;;;;18.30;9.90;;;;;;;;;;5049828;28;20024;-66
2022/11/02 13:52:13;;;;;;;20.95;11.50;;;;;;;;;;5090837;28;20035;-65
2022/11/02 13:54:48;;;;;;;19.55;11.05;;;;;;;;;;5090172;28;20024;-64
2022/11/02 13:57:20;;;;;;;17.98;10.68;;;;;;;;;;5090957;28;20510;-64
2022/11/02 13:59:46;;;;;;;22.05;11.52;;;;;;;;;;5072524;28;20111;-64
2022/11/02 14:02:14;;;;;;;18.42;11.43;;;;;;;;;;5090949;28;20024;-64
2022/11/02 14:04:41;;;;;;;22.48;11.50;;;;;;;;;;5090125;28;20024;-65
2022/11/02 14:07:22;;;;;;;20.15;11.45;;;;;;;;;;5072648;28;20032;-65
2022/11/02 14:09:48;;;;;;;19.02;10.90;;;;;;;;;;5090999;28;20031;-65
2022/11/02 14:12:17;;;;;;;18.95;11.40;;;;;;;;;;5072558;28;20028;-64
2022/11/02 14:14:44;;;;;;;21.60;11.75;;;;;;;;;;5071766;28;20072;-62
2022/11/02 14:17:11;;;;;;;19.42;11.30;;;;;;;;;;5090769;28;20364;-64
2022/11/02 14:19:43;;;;;;;19.17;10.90;;;;;;;;;;5072122;28;20036;-65
2022/11/02 14:22:10;;;;;;;17.80;11.35;;;;;;;;;;5072335;28;20020;-67
2022/11/02 14:24:36;;;;;;;17.73;11.10;;;;;;;;;;5072317;28;20066;-66
2022/11/02 14:27:03;;;;;;;19.05;10.63;;;;;;;;;;5091173;28;20020;-64
2022/11/02 14:29:44;;;;;;;23.02;11.07;;;;;;;;;;5090193;28;20032;-66
2022/11/02 14:32:22;;;;;;;16.67;10.50;;;;;;;;;;5090642;28;20503;-69
2022/11/02 14:34:48;;;;;;;21.05;9.88;;;;;;;;;;5090245;28;20434;-68
2022/11/02 14:37:24;;;;;;;17.52;10.10;;;;;;;;;;5071732;28;20427;-69
2022/11/02 14:39:55;;;;;;;19.73;10.38;;;;;;;;;;5072512;28;20404;-65
2022/11/02 14:42:21;;;;;;;16.83;9.82;;;;;;;;;;5090301;28;20439;-66
2022/11/02 14:44:56;;;;;;;17.88;9.95;;;;;;;;;;5089758;28;20028;-66
2022/11/02 14:47:27;;;;;;;18.88;10.15;;;;;;;;;;5090458;28;20087;-67
2022/11/02 14:50:05;;;;;;;17.75;9.85;;;;;;;;;;5072469;28;20024;-66
2022/11/02 14:52:32;;;;;;;18.38;10.50;;;;;;;;;;5090413;28;20111;-65
2022/11/02 14:55:28;;;;;;;22.00;10.18;;;;;;;;;;5071438;28;20064;-62